Mendon - 24 Hour Table
Date & TimeSolar
Radiation
(W/m²)
Wind
Speed
(mph)
Wind
Direction
(degrees)
Air
Temperature
(°F)
Relative
Humidity
(%)
Precipitation
(inches)
2017/06/27 01:00 1 0.0 258 64.7 62 0.00
2017/06/27 00:00 1 0.0 289 69.3 58 0.00
2017/06/26 23:00 1 0.0 295 71.5 36 0.00
2017/06/26 22:00 1 0.0 195 73.8 39 0.00
2017/06/26 21:00 2 0.0 299 74.4 39 0.00
2017/06/26 20:00 21 0.0 211 72.3 48 0.00
2017/06/26 19:00 59 0.0 165 78.5 48 0.00
2017/06/26 18:00 52 0.0 154 84.4 40 0.00
2017/06/26 17:00 67 0.0 298 87.6 38 0.00
2017/06/26 16:00 437 0.0 261 88.1 34 0.00
2017/06/26 15:00 843 0.0 173 88.3 32 0.00
2017/06/26 14:00 955 0.0 177 86.1 31 0.00
2017/06/26 13:00 701 0.0 202 82.6 41 0.00
2017/06/26 12:00 478 0.0 183 79.9 47 0.00
2017/06/26 11:00 875 0.0 160 77.6 45 0.00
2017/06/26 10:00 669 0.0 109 73.6 47 0.00
2017/06/26 09:00 584 0.0 160 67.8 51 0.00
2017/06/26 08:00 164 0.0 155 62.3 55 0.00
2017/06/26 07:00 30 0.0 126 56.0 69 0.00
2017/06/26 06:00 13 0.0 343 51.6 84 0.00
2017/06/26 05:00 2 0.0 319 51.1 80 0.00
2017/06/26 04:00 1 0.0 320 52.4 80 0.00
2017/06/26 03:00 1 0.0 301 53.2 77 0.00
2017/06/26 02:00 1 0.0 296 54.2 75 0.00